sensor_id;sensor_type;location;lat;lon;timestamp;P1;durP1;ratioP1;P2;durP2;ratioP2
18505;SDS011;9382;53.242;10.438;2023-02-12T00:01:11;29.93;;;11.30;;
18505;SDS011;9382;53.242;10.438;2023-02-12T00:03:38;31.03;;;11.77;;
18505;SDS011;9382;53.242;10.438;2023-02-12T00:06:07;32.60;;;11.60;;
18505;SDS011;9382;53.242;10.438;2023-02-12T00:08:35;30.87;;;11.37;;
18505;SDS011;9382;53.242;10.438;2023-02-12T00:11:06;29.23;;;10.10;;
18505;SDS011;9382;53.242;10.438;2023-02-12T00:13:34;22.80;;;9.13;;
18505;SDS011;9382;53.242;10.438;2023-02-12T00:16:03;20.07;;;7.93;;
18505;SDS011;9382;53.242;10.438;2023-02-12T00:18:30;21.17;;;7.93;;
18505;SDS011;9382;53.242;10.438;2023-02-12T00:20:57;24.57;;;8.10;;
18505;SDS011;9382;53.242;10.438;2023-02-12T00:23:26;22.03;;;8.57;;
18505;SDS011;9382;53.242;10.438;2023-02-12T00:25:53;20.13;;;7.10;;
18505;SDS011;9382;53.242;10.438;2023-02-12T00:28:20;22.77;;;7.87;;
18505;SDS011;9382;53.242;10.438;2023-02-12T00:30:47;16.33;;;6.87;;
18505;SDS011;9382;53.242;10.438;2023-02-12T00:33:14;14.17;;;6.43;;
18505;SDS011;9382;53.242;10.438;2023-02-12T00:35:41;14.50;;;6.07;;
18505;SDS011;9382;53.242;10.438;2023-02-12T00:38:07;12.30;;;5.47;;
18505;SDS011;9382;53.242;10.438;2023-02-12T00:40:35;18.40;;;5.73;;
18505;SDS011;9382;53.242;10.438;2023-02-12T00:43:02;12.57;;;6.37;;
18505;SDS011;9382;53.242;10.438;2023-02-12T00:45:30;13.27;;;5.60;;
18505;SDS011;9382;53.242;10.438;2023-02-12T00:47:56;14.83;;;5.80;;
18505;SDS011;9382;53.242;10.438;2023-02-12T00:50:23;14.27;;;5.50;;
18505;SDS011;9382;53.242;10.438;2023-02-12T00:52:50;12.07;;;5.50;;
18505;SDS011;9382;53.242;10.438;2023-02-12T00:55:16;16.13;;;6.60;;
18505;SDS011;9382;53.242;10.438;2023-02-12T00:57:45;14.10;;;6.00;;
18505;SDS011;9382;53.242;10.438;2023-02-12T01:00:12;15.13;;;5.70;;
18505;SDS011;9382;53.242;10.438;2023-02-12T01:02:40;10.23;;;4.93;;
18505;SDS011;9382;53.242;10.438;2023-02-12T01:05:07;12.23;;;5.23;;
18505;SDS011;9382;53.242;10.438;2023-02-12T01:07:34;12.30;;;4.93;;
18505;SDS011;9382;53.242;10.438;2023-02-12T01:10:02;11.30;;;4.87;;
18505;SDS011;9382;53.242;10.438;2023-02-12T01:12:30;10.40;;;5.30;;
18505;SDS011;9382;53.242;10.438;2023-02-12T01:14:58;9.63;;;5.47;;
18505;SDS011;9382;53.242;10.438;2023-02-12T01:17:25;9.97;;;4.80;;
18505;SDS011;9382;53.242;10.438;2023-02-12T01:19:55;11.50;;;5.60;;
18505;SDS011;9382;53.242;10.438;2023-02-12T01:22:22;9.23;;;5.10;;
18505;SDS011;9382;53.242;10.438;2023-02-12T01:24:49;10.77;;;5.40;;
18505;SDS011;9382;53.242;10.438;2023-02-12T01:27:16;13.10;;;5.07;;
18505;SDS011;9382;53.242;10.438;2023-02-12T01:29:43;12.93;;;5.67;;
18505;SDS011;9382;53.242;10.438;2023-02-12T01:32:11;10.30;;;5.00;;
18505;SDS011;9382;53.242;10.438;2023-02-12T01:34:38;10.87;;;5.17;;
18505;SDS011;9382;53.242;10.438;2023-02-12T01:37:04;8.10;;;4.67;;
18505;SDS011;9382;53.242;10.438;2023-02-12T01:39:31;9.13;;;5.00;;
18505;SDS011;9382;53.242;10.438;2023-02-12T01:41:59;10.90;;;5.63;;
18505;SDS011;9382;53.242;10.438;2023-02-12T01:44:27;8.97;;;4.77;;
18505;SDS011;9382;53.242;10.438;2023-02-12T01:46:55;10.30;;;5.17;;
18505;SDS011;9382;53.242;10.438;2023-02-12T01:49:25;8.53;;;4.50;;
18505;SDS011;9382;53.242;10.438;2023-02-12T01:51:56;7.10;;;4.63;;
18505;SDS011;9382;53.242;10.438;2023-02-12T01:54:27;8.57;;;4.07;;
18505;SDS011;9382;53.242;10.438;2023-02-12T01:56:55;8.83;;;4.33;;
18505;SDS011;9382;53.242;10.438;2023-02-12T01:59:22;9.27;;;4.90;;
18505;SDS011;9382;53.242;10.438;2023-02-12T02:01:49;8.33;;;4.37;;
18505;SDS011;9382;53.242;10.438;2023-02-12T02:04:18;7.00;;;4.40;;
18505;SDS011;9382;53.242;10.438;2023-02-12T02:06:49;10.67;;;4.73;;
18505;SDS011;9382;53.242;10.438;2023-02-12T02:09:21;8.53;;;4.70;;
18505;SDS011;9382;53.242;10.438;2023-02-12T02:11:49;9.37;;;4.60;;
18505;SDS011;9382;53.242;10.438;2023-02-12T02:14:33;7.13;;;4.30;;
18505;SDS011;9382;53.242;10.438;2023-02-12T02:17:03;7.33;;;4.30;;
18505;SDS011;9382;53.242;10.438;2023-02-12T02:19:47;8.73;;;4.63;;
18505;SDS011;9382;53.242;10.438;2023-02-12T02:22:29;9.53;;;4.93;;
18505;SDS011;9382;53.242;10.438;2023-02-12T02:25:09;8.47;;;4.73;;
18505;SDS011;9382;53.242;10.438;2023-02-12T02:27:54;10.43;;;5.00;;
18505;SDS011;9382;53.242;10.438;2023-02-12T02:30:34;11.37;;;4.97;;
18505;SDS011;9382;53.242;10.438;2023-02-12T02:33:12;10.07;;;5.20;;
18505;SDS011;9382;53.242;10.438;2023-02-12T02:35:48;8.47;;;5.03;;
18505;SDS011;9382;53.242;10.438;2023-02-12T02:38:22;9.83;;;5.20;;
18505;SDS011;9382;53.242;10.438;2023-02-12T02:40:55;10.17;;;5.97;;
18505;SDS011;9382;53.242;10.438;2023-02-12T02:43:29;9.10;;;4.93;;
18505;SDS011;9382;53.242;10.438;2023-02-12T02:46:02;11.90;;;5.33;;
18505;SDS011;9382;53.242;10.438;2023-02-12T02:48:33;9.70;;;5.20;;
18505;SDS011;9382;53.242;10.438;2023-02-12T02:51:03;10.00;;;5.37;;
18505;SDS011;9382;53.242;10.438;2023-02-12T02:53:36;13.33;;;5.80;;
18505;SDS011;9382;53.242;10.438;2023-02-12T02:56:07;11.17;;;5.27;;
18505;SDS011;9382;53.242;10.438;2023-02-12T02:58:40;10.63;;;5.07;;
18505;SDS011;9382;53.242;10.438;2023-02-12T03:01:11;9.40;;;5.10;;
18505;SDS011;9382;53.242;10.438;2023-02-12T03:03:43;11.27;;;5.63;;
18505;SDS011;9382;53.242;10.438;2023-02-12T03:06:15;10.97;;;5.97;;
18505;SDS011;9382;53.242;10.438;2023-02-12T03:08:48;9.67;;;4.90;;
18505;SDS011;9382;53.242;10.438;2023-02-12T03:11:21;12.20;;;6.23;;
18505;SDS011;9382;53.242;10.438;2023-02-12T03:13:51;11.50;;;5.90;;
18505;SDS011;9382;53.242;10.438;2023-02-12T03:16:26;16.33;;;7.30;;
18505;SDS011;9382;53.242;10.438;2023-02-12T03:18:55;19.90;;;7.57;;
18505;SDS011;9382;53.242;10.438;2023-02-12T03:21:29;16.03;;;7.43;;
18505;SDS011;9382;53.242;10.438;2023-02-12T03:24:01;14.47;;;6.50;;
18505;SDS011;9382;53.242;10.438;2023-02-12T03:26:37;14.30;;;6.97;;
18505;SDS011;9382;53.242;10.438;2023-02-12T03:29:09;15.17;;;6.93;;
18505;SDS011;9382;53.242;10.438;2023-02-12T03:31:40;14.47;;;7.23;;
18505;SDS011;9382;53.242;10.438;2023-02-12T03:34:23;15.43;;;7.10;;
18505;SDS011;9382;53.242;10.438;2023-02-12T03:36:55;13.27;;;6.00;;
18505;SDS011;9382;53.242;10.438;2023-02-12T03:39:27;17.97;;;6.87;;
18505;SDS011;9382;53.242;10.438;2023-02-12T03:42:00;17.10;;;6.80;;
18505;SDS011;9382;53.242;10.438;2023-02-12T03:44:35;20.17;;;7.50;;
18505;SDS011;9382;53.242;10.438;2023-02-12T03:47:16;18.70;;;7.87;;
18505;SDS011;9382;53.242;10.438;2023-02-12T03:49:52;17.07;;;7.87;;
18505;SDS011;9382;53.242;10.438;2023-02-12T03:52:26;19.50;;;8.70;;
18505;SDS011;9382;53.242;10.438;2023-02-12T03:54:54;18.40;;;7.83;;
18505;SDS011;9382;53.242;10.438;2023-02-12T03:57:21;17.57;;;7.80;;
18505;SDS011;9382;53.242;10.438;2023-02-12T03:59:54;20.77;;;8.77;;
18505;SDS011;9382;53.242;10.438;2023-02-12T04:02:23;17.23;;;7.87;;
18505;SDS011;9382;53.242;10.438;2023-02-12T04:04:50;19.07;;;7.47;;
18505;SDS011;9382;53.242;10.438;2023-02-12T04:07:17;14.60;;;6.77;;
18505;SDS011;9382;53.242;10.438;2023-02-12T04:09:44;16.63;;;7.50;;
18505;SDS011;9382;53.242;10.438;2023-02-12T04:12:20;17.17;;;7.40;;
18505;SDS011;9382;53.242;10.438;2023-02-12T04:15:03;20.00;;;7.97;;
18505;SDS011;9382;53.242;10.438;2023-02-12T04:17:46;17.73;;;7.40;;
18505;SDS011;9382;53.242;10.438;2023-02-12T04:20:21;18.33;;;7.33;;
18505;SDS011;9382;53.242;10.438;2023-02-12T04:22:54;19.20;;;8.00;;
18505;SDS011;9382;53.242;10.438;2023-02-12T04:25:42;19.00;;;7.17;;
18505;SDS011;9382;53.242;10.438;2023-02-12T04:28:20;20.33;;;7.77;;
18505;SDS011;9382;53.242;10.438;2023-02-12T04:30:54;16.30;;;7.10;;
18505;SDS011;9382;53.242;10.438;2023-02-12T04:33:26;14.40;;;6.67;;
18505;SDS011;9382;53.242;10.438;2023-02-12T04:36:00;17.40;;;7.43;;
18505;SDS011;9382;53.242;10.438;2023-02-12T04:38:31;16.40;;;6.73;;
18505;SDS011;9382;53.242;10.438;2023-02-12T04:41:03;14.43;;;6.90;;
18505;SDS011;9382;53.242;10.438;2023-02-12T04:43:32;15.97;;;6.73;;
18505;SDS011;9382;53.242;10.438;2023-02-12T04:46:01;16.00;;;6.60;;
18505;SDS011;9382;53.242;10.438;2023-02-12T04:48:30;12.10;;;6.10;;
18505;SDS011;9382;53.242;10.438;2023-02-12T04:50:58;14.80;;;6.17;;
18505;SDS011;9382;53.242;10.438;2023-02-12T04:53:25;12.37;;;5.33;;
18505;SDS011;9382;53.242;10.438;2023-02-12T04:55:52;11.80;;;5.60;;
18505;SDS011;9382;53.242;10.438;2023-02-12T04:58:19;13.37;;;5.60;;
18505;SDS011;9382;53.242;10.438;2023-02-12T05:00:46;11.73;;;5.63;;
18505;SDS011;9382;53.242;10.438;2023-02-12T05:03:12;11.83;;;5.40;;
18505;SDS011;9382;53.242;10.438;2023-02-12T05:05:40;14.10;;;5.93;;
18505;SDS011;9382;53.242;10.438;2023-02-12T05:08:07;12.73;;;5.17;;
18505;SDS011;9382;53.242;10.438;2023-02-12T05:10:34;11.00;;;4.80;;
18505;SDS011;9382;53.242;10.438;2023-02-12T05:13:01;12.33;;;5.73;;
18505;SDS011;9382;53.242;10.438;2023-02-12T05:15:27;9.97;;;4.90;;
18505;SDS011;9382;53.242;10.438;2023-02-12T05:17:54;10.43;;;5.47;;
18505;SDS011;9382;53.242;10.438;2023-02-12T05:20:21;10.70;;;4.90;;
18505;SDS011;9382;53.242;10.438;2023-02-12T05:22:51;11.43;;;5.47;;
18505;SDS011;9382;53.242;10.438;2023-02-12T05:25:18;12.83;;;5.70;;
18505;SDS011;9382;53.242;10.438;2023-02-12T05:27:45;12.17;;;5.30;;
18505;SDS011;9382;53.242;10.438;2023-02-12T05:30:12;12.50;;;5.63;;
18505;SDS011;9382;53.242;10.438;2023-02-12T05:32:39;11.70;;;5.30;;
18505;SDS011;9382;53.242;10.438;2023-02-12T05:35:06;15.37;;;5.63;;
18505;SDS011;9382;53.242;10.438;2023-02-12T05:37:33;14.27;;;6.23;;
18505;SDS011;9382;53.242;10.438;2023-02-12T05:40:01;13.57;;;6.13;;
18505;SDS011;9382;53.242;10.438;2023-02-12T05:42:29;13.60;;;5.87;;
18505;SDS011;9382;53.242;10.438;2023-02-12T05:44:56;16.13;;;6.07;;
18505;SDS011;9382;53.242;10.438;2023-02-12T05:47:23;14.10;;;5.60;;
18505;SDS011;9382;53.242;10.438;2023-02-12T05:49:49;13.60;;;6.00;;
18505;SDS011;9382;53.242;10.438;2023-02-12T05:52:16;13.27;;;5.63;;
18505;SDS011;9382;53.242;10.438;2023-02-12T05:54:43;16.40;;;5.70;;
18505;SDS011;9382;53.242;10.438;2023-02-12T05:57:11;13.37;;;6.27;;
18505;SDS011;9382;53.242;10.438;2023-02-12T05:59:38;11.43;;;5.17;;
18505;SDS011;9382;53.242;10.438;2023-02-12T06:02:04;10.87;;;5.43;;
18505;SDS011;9382;53.242;10.438;2023-02-12T06:04:31;18.70;;;7.80;;
18505;SDS011;9382;53.242;10.438;2023-02-12T06:06:58;15.20;;;7.10;;
18505;SDS011;9382;53.242;10.438;2023-02-12T06:09:25;11.40;;;5.17;;
18505;SDS011;9382;53.242;10.438;2023-02-12T06:11:52;12.07;;;5.77;;
18505;SDS011;9382;53.242;10.438;2023-02-12T06:14:20;10.43;;;5.50;;
18505;SDS011;9382;53.242;10.438;2023-02-12T06:16:47;12.27;;;5.53;;
18505;SDS011;9382;53.242;10.438;2023-02-12T06:19:16;10.00;;;5.10;;
18505;SDS011;9382;53.242;10.438;2023-02-12T06:21:44;11.47;;;5.60;;
18505;SDS011;9382;53.242;10.438;2023-02-12T06:24:12;11.00;;;5.40;;
18505;SDS011;9382;53.242;10.438;2023-02-12T06:26:39;9.23;;;4.73;;
18505;SDS011;9382;53.242;10.438;2023-02-12T06:29:06;9.50;;;4.83;;
18505;SDS011;9382;53.242;10.438;2023-02-12T06:31:35;12.13;;;6.97;;
18505;SDS011;9382;53.242;10.438;2023-02-12T06:34:03;11.53;;;5.30;;
18505;SDS011;9382;53.242;10.438;2023-02-12T06:36:32;10.27;;;4.90;;
18505;SDS011;9382;53.242;10.438;2023-02-12T06:38:59;10.53;;;5.33;;
18505;SDS011;9382;53.242;10.438;2023-02-12T06:41:26;11.93;;;6.13;;
18505;SDS011;9382;53.242;10.438;2023-02-12T06:43:53;13.90;;;5.53;;
18505;SDS011;9382;53.242;10.438;2023-02-12T06:46:19;15.50;;;5.90;;
18505;SDS011;9382;53.242;10.438;2023-02-12T06:48:51;10.57;;;5.30;;
18505;SDS011;9382;53.242;10.438;2023-02-12T06:51:18;15.23;;;6.27;;
18505;SDS011;9382;53.242;10.438;2023-02-12T06:53:45;16.10;;;6.10;;
18505;SDS011;9382;53.242;10.438;2023-02-12T06:56:13;13.50;;;6.07;;
18505;SDS011;9382;53.242;10.438;2023-02-12T06:58:40;17.33;;;6.23;;
18505;SDS011;9382;53.242;10.438;2023-02-12T07:01:08;16.93;;;6.90;;
18505;SDS011;9382;53.242;10.438;2023-02-12T07:03:37;17.93;;;6.67;;
18505;SDS011;9382;53.242;10.438;2023-02-12T07:06:06;17.97;;;6.57;;
18505;SDS011;9382;53.242;10.438;2023-02-12T07:08:34;16.47;;;5.90;;
18505;SDS011;9382;53.242;10.438;2023-02-12T07:11:00;19.17;;;6.53;;
18505;SDS011;9382;53.242;10.438;2023-02-12T07:13:27;18.63;;;6.57;;
18505;SDS011;9382;53.242;10.438;2023-02-12T07:15:54;21.60;;;6.30;;
18505;SDS011;9382;53.242;10.438;2023-02-12T07:18:21;20.77;;;6.83;;
18505;SDS011;9382;53.242;10.438;2023-02-12T07:20:47;21.47;;;7.40;;
18505;SDS011;9382;53.242;10.438;2023-02-12T07:23:15;24.57;;;7.23;;
18505;SDS011;9382;53.242;10.438;2023-02-12T07:25:42;20.87;;;7.77;;
18505;SDS011;9382;53.242;10.438;2023-02-12T07:28:09;30.20;;;8.60;;
18505;SDS011;9382;53.242;10.438;2023-02-12T07:30:36;27.10;;;8.30;;
18505;SDS011;9382;53.242;10.438;2023-02-12T07:33:03;26.90;;;9.30;;
18505;SDS011;9382;53.242;10.438;2023-02-12T07:35:30;24.40;;;8.13;;
18505;SDS011;9382;53.242;10.438;2023-02-12T07:37:57;28.67;;;8.70;;
18505;SDS011;9382;53.242;10.438;2023-02-12T07:40:25;27.80;;;8.57;;
18505;SDS011;9382;53.242;10.438;2023-02-12T07:42:53;30.50;;;9.57;;
18505;SDS011;9382;53.242;10.438;2023-02-12T07:45:20;29.07;;;8.97;;
18505;SDS011;9382;53.242;10.438;2023-02-12T07:47:48;31.10;;;8.50;;
18505;SDS011;9382;53.242;10.438;2023-02-12T07:50:15;29.70;;;8.37;;
18505;SDS011;9382;53.242;10.438;2023-02-12T07:52:42;34.47;;;9.23;;
18505;SDS011;9382;53.242;10.438;2023-02-12T07:55:09;31.90;;;9.73;;
18505;SDS011;9382;53.242;10.438;2023-02-12T07:57:37;32.10;;;9.00;;
18505;SDS011;9382;53.242;10.438;2023-02-12T08:00:04;33.43;;;9.43;;
18505;SDS011;9382;53.242;10.438;2023-02-12T08:02:32;29.53;;;9.10;;
18505;SDS011;9382;53.242;10.438;2023-02-12T08:04:58;30.70;;;8.80;;
18505;SDS011;9382;53.242;10.438;2023-02-12T08:07:25;29.13;;;8.40;;
18505;SDS011;9382;53.242;10.438;2023-02-12T08:09:52;30.97;;;9.67;;
18505;SDS011;9382;53.242;10.438;2023-02-12T08:12:19;27.57;;;8.07;;
18505;SDS011;9382;53.242;10.438;2023-02-12T08:14:47;31.47;;;9.00;;
18505;SDS011;9382;53.242;10.438;2023-02-12T08:17:14;29.03;;;9.20;;
18505;SDS011;9382;53.242;10.438;2023-02-12T08:19:40;33.10;;;9.73;;
18505;SDS011;9382;53.242;10.438;2023-02-12T08:22:07;31.40;;;10.10;;
18505;SDS011;9382;53.242;10.438;2023-02-12T08:24:34;31.50;;;10.60;;
18505;SDS011;9382;53.242;10.438;2023-02-12T08:27:00;30.63;;;9.37;;
18505;SDS011;9382;53.242;10.438;2023-02-12T08:29:28;27.80;;;9.23;;
18505;SDS011;9382;53.242;10.438;2023-02-12T08:31:57;24.57;;;8.67;;
18505;SDS011;9382;53.242;10.438;2023-02-12T08:34:25;23.57;;;8.83;;
18505;SDS011;9382;53.242;10.438;2023-02-12T08:36:53;28.40;;;9.50;;
18505;SDS011;9382;53.242;10.438;2023-02-12T08:39:21;22.80;;;8.40;;
18505;SDS011;9382;53.242;10.438;2023-02-12T08:41:49;24.67;;;9.00;;
18505;SDS011;9382;53.242;10.438;2023-02-12T08:44:16;26.37;;;8.77;;
18505;SDS011;9382;53.242;10.438;2023-02-12T08:46:44;21.30;;;8.40;;
18505;SDS011;9382;53.242;10.438;2023-02-12T08:49:14;19.83;;;8.17;;
18505;SDS011;9382;53.242;10.438;2023-02-12T08:51:43;25.40;;;9.17;;
18505;SDS011;9382;53.242;10.438;2023-02-12T08:54:13;24.90;;;9.17;;
18505;SDS011;9382;53.242;10.438;2023-02-12T08:56:40;24.07;;;9.30;;
18505;SDS011;9382;53.242;10.438;2023-02-12T08:59:09;23.13;;;9.67;;
18505;SDS011;9382;53.242;10.438;2023-02-12T09:01:37;23.43;;;9.90;;
18505;SDS011;9382;53.242;10.438;2023-02-12T09:04:05;23.80;;;9.57;;
18505;SDS011;9382;53.242;10.438;2023-02-12T09:06:34;23.97;;;9.93;;
18505;SDS011;9382;53.242;10.438;2023-02-12T09:09:01;21.30;;;9.50;;
18505;SDS011;9382;53.242;10.438;2023-02-12T09:11:28;23.87;;;9.07;;
18505;SDS011;9382;53.242;10.438;2023-02-12T09:13:56;22.00;;;8.83;;
18505;SDS011;9382;53.242;10.438;2023-02-12T09:16:24;22.30;;;9.67;;
18505;SDS011;9382;53.242;10.438;2023-02-12T09:18:51;19.27;;;8.43;;
18505;SDS011;9382;53.242;10.438;2023-02-12T09:21:17;23.03;;;9.73;;
18505;SDS011;9382;53.242;10.438;2023-02-12T09:23:46;23.97;;;9.13;;
18505;SDS011;9382;53.242;10.438;2023-02-12T09:26:14;24.17;;;9.57;;
18505;SDS011;9382;53.242;10.438;2023-02-12T09:28:44;20.37;;;8.57;;
18505;SDS011;9382;53.242;10.438;2023-02-12T09:31:13;26.20;;;9.90;;
18505;SDS011;9382;53.242;10.438;2023-02-12T09:33:41;23.63;;;9.83;;
18505;SDS011;9382;53.242;10.438;2023-02-12T09:36:09;20.00;;;9.70;;
18505;SDS011;9382;53.242;10.438;2023-02-12T09:38:37;20.03;;;9.40;;
18505;SDS011;9382;53.242;10.438;2023-02-12T09:44:05;21.77;;;9.00;;
18505;SDS011;9382;53.242;10.438;2023-02-12T09:46:38;22.73;;;9.77;;
18505;SDS011;9382;53.242;10.438;2023-02-12T09:49:11;23.30;;;9.73;;
18505;SDS011;9382;53.242;10.438;2023-02-12T09:51:44;20.23;;;9.70;;
18505;SDS011;9382;53.242;10.438;2023-02-12T09:54:18;20.20;;;8.80;;
18505;SDS011;9382;53.242;10.438;2023-02-12T09:56:47;22.07;;;9.13;;
18505;SDS011;9382;53.242;10.438;2023-02-12T09:59:20;21.43;;;9.20;;
18505;SDS011;9382;53.242;10.438;2023-02-12T10:01:53;21.87;;;9.80;;
18505;SDS011;9382;53.242;10.438;2023-02-12T10:04:20;20.63;;;9.33;;
18505;SDS011;9382;53.242;10.438;2023-02-12T10:06:50;21.47;;;9.57;;
18505;SDS011;9382;53.242;10.438;2023-02-12T10:09:27;23.60;;;9.87;;
18505;SDS011;9382;53.242;10.438;2023-02-12T10:12:03;18.83;;;9.33;;
18505;SDS011;9382;53.242;10.438;2023-02-12T10:14:58;21.70;;;8.77;;
18505;SDS011;9382;53.242;10.438;2023-02-12T10:17:40;20.20;;;7.93;;
18505;SDS011;9382;53.242;10.438;2023-02-12T10:20:22;20.57;;;9.07;;
18505;SDS011;9382;53.242;10.438;2023-02-12T10:23:01;20.03;;;9.07;;
18505;SDS011;9382;53.242;10.438;2023-02-12T10:25:39;22.60;;;8.97;;
18505;SDS011;9382;53.242;10.438;2023-02-12T10:28:14;18.97;;;8.60;;
18505;SDS011;9382;53.242;10.438;2023-02-12T10:30:47;24.40;;;9.40;;
18505;SDS011;9382;53.242;10.438;2023-02-12T10:33:18;18.77;;;8.50;;
18505;SDS011;9382;53.242;10.438;2023-02-12T10:35:54;17.73;;;8.00;;
18505;SDS011;9382;53.242;10.438;2023-02-12T10:38:28;14.57;;;7.37;;
18505;SDS011;9382;53.242;10.438;2023-02-12T10:40:57;16.17;;;6.80;;
18505;SDS011;9382;53.242;10.438;2023-02-12T10:43:26;19.43;;;7.27;;
18505;SDS011;9382;53.242;10.438;2023-02-12T10:45:54;12.60;;;6.17;;
18505;SDS011;9382;53.242;10.438;2023-02-12T10:48:22;13.07;;;6.33;;
18505;SDS011;9382;53.242;10.438;2023-02-12T10:50:51;12.30;;;6.23;;
18505;SDS011;9382;53.242;10.438;2023-02-12T10:53:28;14.13;;;6.43;;
18505;SDS011;9382;53.242;10.438;2023-02-12T10:56:12;12.83;;;6.00;;
18505;SDS011;9382;53.242;10.438;2023-02-12T10:58:49;14.50;;;5.67;;
18505;SDS011;9382;53.242;10.438;2023-02-12T11:01:21;11.83;;;5.80;;
18505;SDS011;9382;53.242;10.438;2023-02-12T11:03:51;14.63;;;6.00;;
18505;SDS011;9382;53.242;10.438;2023-02-12T11:06:19;9.93;;;5.67;;
18505;SDS011;9382;53.242;10.438;2023-02-12T11:08:47;10.20;;;5.37;;
18505;SDS011;9382;53.242;10.438;2023-02-12T11:11:15;10.53;;;4.83;;
18505;SDS011;9382;53.242;10.438;2023-02-12T11:13:46;10.60;;;5.07;;
18505;SDS011;9382;53.242;10.438;2023-02-12T11:16:26;11.23;;;5.40;;
18505;SDS011;9382;53.242;10.438;2023-02-12T11:18:59;12.87;;;5.43;;
18505;SDS011;9382;53.242;10.438;2023-02-12T11:21:28;11.30;;;5.93;;
18505;SDS011;9382;53.242;10.438;2023-02-12T11:23:56;12.17;;;5.20;;
18505;SDS011;9382;53.242;10.438;2023-02-12T11:26:25;12.50;;;5.40;;
18505;SDS011;9382;53.242;10.438;2023-02-12T11:28:54;13.20;;;5.70;;
18505;SDS011;9382;53.242;10.438;2023-02-12T11:31:23;12.87;;;5.50;;
18505;SDS011;9382;53.242;10.438;2023-02-12T11:34:12;13.77;;;6.03;;
18505;SDS011;9382;53.242;10.438;2023-02-12T11:36:43;9.30;;;4.73;;
18505;SDS011;9382;53.242;10.438;2023-02-12T11:39:17;14.73;;;5.40;;
18505;SDS011;9382;53.242;10.438;2023-02-12T11:41:48;10.63;;;5.03;;
18505;SDS011;9382;53.242;10.438;2023-02-12T11:44:18;10.67;;;5.17;;
18505;SDS011;9382;53.242;10.438;2023-02-12T11:46:48;10.27;;;5.17;;
18505;SDS011;9382;53.242;10.438;2023-02-12T11:49:19;8.50;;;4.53;;
18505;SDS011;9382;53.242;10.438;2023-02-12T11:51:48;12.77;;;6.13;;
18505;SDS011;9382;53.242;10.438;2023-02-12T11:54:17;13.00;;;6.77;;
18505;SDS011;9382;53.242;10.438;2023-02-12T11:56:47;11.77;;;5.77;;
18505;SDS011;9382;53.242;10.438;2023-02-12T11:59:20;10.17;;;5.37;;
18505;SDS011;9382;53.242;10.438;2023-02-12T12:01:55;12.97;;;5.33;;
18505;SDS011;9382;53.242;10.438;2023-02-12T12:04:27;7.93;;;4.70;;
18505;SDS011;9382;53.242;10.438;2023-02-12T12:06:59;10.07;;;4.70;;
18505;SDS011;9382;53.242;10.438;2023-02-12T12:09:28;9.57;;;5.40;;
18505;SDS011;9382;53.242;10.438;2023-02-12T12:12:03;7.70;;;4.30;;
18505;SDS011;9382;53.242;10.438;2023-02-12T12:14:38;9.40;;;5.00;;
18505;SDS011;9382;53.242;10.438;2023-02-12T12:17:23;8.20;;;4.77;;
18505;SDS011;9382;53.242;10.438;2023-02-12T12:20:16;6.00;;;3.87;;
18505;SDS011;9382;53.242;10.438;2023-02-12T12:22:49;5.27;;;3.70;;
18505;SDS011;9382;53.242;10.438;2023-02-12T12:25:20;5.80;;;3.30;;
18505;SDS011;9382;53.242;10.438;2023-02-12T12:27:53;5.20;;;3.60;;
18505;SDS011;9382;53.242;10.438;2023-02-12T12:30:35;7.13;;;3.37;;
18505;SDS011;9382;53.242;10.438;2023-02-12T12:33:11;6.13;;;3.53;;
18505;SDS011;9382;53.242;10.438;2023-02-12T12:35:44;4.53;;;2.97;;
18505;SDS011;9382;53.242;10.438;2023-02-12T12:38:20;5.30;;;3.40;;
18505;SDS011;9382;53.242;10.438;2023-02-12T12:40:59;5.70;;;3.37;;
18505;SDS011;9382;53.242;10.438;2023-02-12T12:43:34;7.40;;;3.57;;
18505;SDS011;9382;53.242;10.438;2023-02-12T12:49:22;6.37;;;3.30;;
18505;SDS011;9382;53.242;10.438;2023-02-12T12:52:10;3.70;;;2.90;;
18505;SDS011;9382;53.242;10.438;2023-02-12T12:55:00;5.27;;;3.10;;
18505;SDS011;9382;53.242;10.438;2023-02-12T12:57:52;4.53;;;3.10;;
18505;SDS011;9382;53.242;10.438;2023-02-12T13:00:29;5.80;;;3.17;;
18505;SDS011;9382;53.242;10.438;2023-02-12T13:03:04;6.23;;;3.30;;
18505;SDS011;9382;53.242;10.438;2023-02-12T13:08:55;4.00;;;3.10;;
18505;SDS011;9382;53.242;10.438;2023-02-12T13:11:40;6.27;;;4.00;;
18505;SDS011;9382;53.242;10.438;2023-02-12T13:14:22;7.40;;;4.40;;
18505;SDS011;9382;53.242;10.438;2023-02-12T13:16:57;7.50;;;4.50;;
18505;SDS011;9382;53.242;10.438;2023-02-12T13:19:32;8.90;;;4.50;;
18505;SDS011;9382;53.242;10.438;2023-02-12T13:22:05;6.23;;;4.30;;
18505;SDS011;9382;53.242;10.438;2023-02-12T13:24:44;6.20;;;4.20;;
18505;SDS011;9382;53.242;10.438;2023-02-12T13:27:15;6.07;;;4.30;;
18505;SDS011;9382;53.242;10.438;2023-02-12T13:29:47;6.03;;;3.83;;
18505;SDS011;9382;53.242;10.438;2023-02-12T13:32:21;7.10;;;4.03;;
18505;SDS011;9382;53.242;10.438;2023-02-12T13:34:50;6.80;;;3.90;;
18505;SDS011;9382;53.242;10.438;2023-02-12T13:37:22;7.33;;;4.20;;
18505;SDS011;9382;53.242;10.438;2023-02-12T13:40:02;7.13;;;4.33;;
18505;SDS011;9382;53.242;10.438;2023-02-12T13:42:36;6.90;;;4.67;;
18505;SDS011;9382;53.242;10.438;2023-02-12T13:45:13;6.40;;;4.23;;
18505;SDS011;9382;53.242;10.438;2023-02-12T13:47:51;7.13;;;4.67;;
18505;SDS011;9382;53.242;10.438;2023-02-12T13:50:31;5.93;;;3.90;;
18505;SDS011;9382;53.242;10.438;2023-02-12T13:53:06;8.43;;;4.40;;
18505;SDS011;9382;53.242;10.438;2023-02-12T13:55:49;7.67;;;4.83;;
18505;SDS011;9382;53.242;10.438;2023-02-12T14:01:35;7.37;;;4.80;;
18505;SDS011;9382;53.242;10.438;2023-02-12T14:06:59;8.23;;;4.80;;
18505;SDS011;9382;53.242;10.438;2023-02-12T14:09:29;9.60;;;4.90;;
18505;SDS011;9382;53.242;10.438;2023-02-12T14:12:02;6.77;;;4.70;;
18505;SDS011;9382;53.242;10.438;2023-02-12T14:14:32;9.20;;;4.67;;
18505;SDS011;9382;53.242;10.438;2023-02-12T14:20:05;10.37;;;4.97;;
18505;SDS011;9382;53.242;10.438;2023-02-12T14:25:45;9.17;;;4.97;;
18505;SDS011;9382;53.242;10.438;2023-02-12T14:28:24;9.93;;;5.63;;
18505;SDS011;9382;53.242;10.438;2023-02-12T14:37:13;12.40;;;5.53;;
18505;SDS011;9382;53.242;10.438;2023-02-12T14:43:30;9.77;;;5.70;;
18505;SDS011;9382;53.242;10.438;2023-02-12T14:49:18;7.67;;;5.00;;
18505;SDS011;9382;53.242;10.438;2023-02-12T14:51:53;9.23;;;4.93;;
18505;SDS011;9382;53.242;10.438;2023-02-12T14:54:26;9.23;;;5.40;;
18505;SDS011;9382;53.242;10.438;2023-02-12T14:56:57;9.27;;;4.83;;
18505;SDS011;9382;53.242;10.438;2023-02-12T14:59:29;11.43;;;5.20;;
18505;SDS011;9382;53.242;10.438;2023-02-12T15:01:59;8.33;;;4.90;;
18505;SDS011;9382;53.242;10.438;2023-02-12T15:04:29;8.53;;;4.90;;
18505;SDS011;9382;53.242;10.438;2023-02-12T15:06:58;9.83;;;5.00;;
18505;SDS011;9382;53.242;10.438;2023-02-12T15:09:32;9.90;;;5.40;;
18505;SDS011;9382;53.242;10.438;2023-02-12T15:12:06;11.13;;;6.17;;
18505;SDS011;9382;53.242;10.438;2023-02-12T15:14:42;9.87;;;5.43;;
18505;SDS011;9382;53.242;10.438;2023-02-12T15:17:13;9.00;;;5.60;;
18505;SDS011;9382;53.242;10.438;2023-02-12T15:19:46;13.33;;;6.30;;
18505;SDS011;9382;53.242;10.438;2023-02-12T15:22:18;11.20;;;5.33;;
18505;SDS011;9382;53.242;10.438;2023-02-12T15:24:48;8.60;;;5.13;;
18505;SDS011;9382;53.242;10.438;2023-02-12T15:27:15;10.63;;;5.73;;
18505;SDS011;9382;53.242;10.438;2023-02-12T15:29:45;8.70;;;5.13;;
18505;SDS011;9382;53.242;10.438;2023-02-12T15:32:14;11.60;;;5.33;;
18505;SDS011;9382;53.242;10.438;2023-02-12T15:34:47;11.23;;;6.03;;